Time;durP1;ratioP1;P1;durP2;ratioP2;P2;SDS_P1;SDS_P2;PMS_P1;PMS_P2;Temp;Humidity;BMP_temperature;BMP_pressure;BME280_temperature;BME280_humidity;BME280_pressure;Samples;Min_cycle;Max_cycle;Signal;HPM_P1;HPM_P2
2021/08/11 00:01:35;;;;;;;551.53;405.63;;;;;;;;;;5027779;28;20089;-78
2021/08/11 00:04:01;;;;;;;551.97;412.13;;;;;;;;;;5021609;28;20496;-78
2021/08/11 00:06:27;;;;;;;547.42;392.45;;;;;;;;;;5030192;28;20026;-78
2021/08/11 00:08:53;;;;;;;550.80;407.20;;;;;;;;;;5030699;28;20033;-78
2021/08/11 00:11:19;;;;;;;554.17;410.92;;;;;;;;;;5012224;28;20025;-77
2021/08/11 00:13:45;;;;;;;555.63;411.67;;;;;;;;;;5012504;28;20169;-77
2021/08/11 00:16:11;;;;;;;555.90;406.70;;;;;;;;;;5043561;28;20116;-78
2021/08/11 00:18:37;;;;;;;550.10;401.92;;;;;;;;;;5031847;28;20037;-78
2021/08/11 00:21:04;;;;;;;550.28;400.85;;;;;;;;;;5034169;28;20030;-77
2021/08/11 00:23:30;;;;;;;550.42;401.48;;;;;;;;;;5034497;28;20022;-78
2021/08/11 00:25:56;;;;;;;550.28;399.50;;;;;;;;;;5018932;28;20362;-77
2021/08/11 00:28:23;;;;;;;552.97;403.92;;;;;;;;;;5033391;28;20499;-77
2021/08/11 00:30:49;;;;;;;553.15;407.90;;;;;;;;;;5033968;28;20018;-78
2021/08/11 00:33:15;;;;;;;550.63;404.20;;;;;;;;;;5033965;28;20630;-78
2021/08/11 00:35:41;;;;;;;549.80;399.05;;;;;;;;;;5032849;28;20025;-77
2021/08/11 00:38:07;;;;;;;551.35;398.98;;;;;;;;;;5025981;28;20030;-78
2021/08/11 00:40:33;;;;;;;551.50;402.52;;;;;;;;;;5034333;28;20412;-78
2021/08/11 00:42:59;;;;;;;549.95;397.95;;;;;;;;;;5034308;28;20018;-77
2021/08/11 00:45:25;;;;;;;545.72;387.60;;;;;;;;;;5027041;28;20174;-78
2021/08/11 00:47:52;;;;;;;551.35;396.98;;;;;;;;;;5033173;28;20055;-78
2021/08/11 00:50:18;;;;;;;568.03;403.95;;;;;;;;;;5030595;28;20025;-77
2021/08/11 00:52:46;;;;;;;550.28;398.40;;;;;;;;;;5033301;28;20444;-77
2021/08/11 00:55:12;;;;;;;549.33;396.25;;;;;;;;;;5033042;28;20080;-78
2021/08/11 00:57:40;;;;;;;551.53;406.05;;;;;;;;;;5034324;28;20025;-78
2021/08/11 01:00:06;;;;;;;546.92;396.55;;;;;;;;;;5032411;28;20463;-77
2021/08/11 01:02:33;;;;;;;545.85;393.67;;;;;;;;;;5032871;28;20021;-77
2021/08/11 01:04:59;;;;;;;546.17;392.88;;;;;;;;;;5034660;28;20040;-80
2021/08/11 01:07:28;;;;;;;546.40;394.60;;;;;;;;;;5035079;28;20025;-78
2021/08/11 01:09:55;;;;;;;548.63;394.23;;;;;;;;;;5033070;28;20025;-77
2021/08/11 01:12:23;;;;;;;553.15;403.73;;;;;;;;;;5032622;28;20037;-78
2021/08/11 01:14:50;;;;;;;551.72;401.15;;;;;;;;;;5032556;28;20025;-78
2021/08/11 01:17:16;;;;;;;551.20;400.77;;;;;;;;;;5031840;28;20147;-77
2021/08/11 01:19:42;;;;;;;550.25;399.55;;;;;;;;;;5034225;28;20052;-77
2021/08/11 01:22:16;;;;;;;549.40;396.35;;;;;;;;;;5032415;28;20083;-78
2021/08/11 01:25:05;;;;;;;553.50;400.52;;;;;;;;;;5032863;28;20032;-77
2021/08/11 01:27:31;;;;;;;549.20;392.88;;;;;;;;;;5024849;28;20100;-78
2021/08/11 01:30:05;;;;;;;550.00;398.52;;;;;;;;;;5031405;28;20029;-77
2021/08/11 01:32:43;;;;;;;546.83;390.48;;;;;;;;;;5033674;28;20414;-77
2021/08/11 01:35:13;;;;;;;547.30;387.90;;;;;;;;;;5033671;28;20029;-77
2021/08/11 01:37:40;;;;;;;542.65;379.75;;;;;;;;;;5030175;28;20044;-77
2021/08/11 01:40:06;;;;;;;544.58;384.50;;;;;;;;;;5033000;28;20060;-77
2021/08/11 01:42:37;;;;;;;546.72;391.35;;;;;;;;;;5033202;28;20049;-77
2021/08/11 01:45:12;;;;;;;544.38;384.60;;;;;;;;;;5033242;28;20033;-77
2021/08/11 01:47:44;;;;;;;549.65;398.85;;;;;;;;;;5030283;28;20451;-77
2021/08/11 01:50:12;;;;;;;544.30;387.85;;;;;;;;;;5028650;28;20030;-78
2021/08/11 01:52:42;;;;;;;543.22;383.45;;;;;;;;;;5029508;28;20025;-78
2021/08/11 01:55:08;;;;;;;;;;;;;;;;;;5047386;28;20056;-78
2021/08/11 01:57:34;;;;;;;544.67;370.45;;;;;;;;;;5031621;28;20263;-78
2021/08/11 02:00:01;;;;;;;544.95;378.27;;;;;;;;;;5031993;28;20033;-78
2021/08/11 02:02:28;;;;;;;545.83;385.83;;;;;;;;;;5032019;28;20040;-77
2021/08/11 02:04:54;;;;;;;543.17;378.80;;;;;;;;;;5032463;28;20066;-77
2021/08/11 02:07:20;;;;;;;545.22;383.92;;;;;;;;;;5032479;28;20029;-77
2021/08/11 02:09:46;;;;;;;546.22;387.80;;;;;;;;;;5032089;28;20613;-77
2021/08/11 02:12:12;;;;;;;548.28;389.83;;;;;;;;;;5022413;28;20086;-77
2021/08/11 02:14:40;;;;;;;547.15;388.80;;;;;;;;;;5032718;28;20128;-77
2021/08/11 02:17:06;;;;;;;544.10;382.77;;;;;;;;;;5031921;28;20021;-78
2021/08/11 02:19:33;;;;;;;545.63;389.95;;;;;;;;;;5031332;28;20029;-78
2021/08/11 02:21:59;;;;;;;544.50;385.50;;;;;;;;;;5032078;28;20113;-78
2021/08/11 02:24:25;;;;;;;543.05;382.30;;;;;;;;;;5019308;28;20172;-78
2021/08/11 02:26:53;;;;;;;545.03;386.92;;;;;;;;;;5018275;28;20096;-77
2021/08/11 02:29:37;;;;;;;541.90;382.40;;;;;;;;;;5029974;28;20348;-77
2021/08/11 02:32:06;;;;;;;542.15;380.80;;;;;;;;;;5030512;28;20037;-77
2021/08/11 02:34:37;;;;;;;545.45;388.35;;;;;;;;;;5022112;28;20029;-78
2021/08/11 02:37:10;;;;;;;542.17;380.52;;;;;;;;;;5017141;28;20037;-79
2021/08/11 02:39:43;;;;;;;544.10;383.35;;;;;;;;;;5031113;28;20024;-77
2021/08/11 02:42:14;;;;;;;542.13;380.08;;;;;;;;;;5031346;28;20029;-77
2021/08/11 02:44:41;;;;;;;543.70;384.42;;;;;;;;;;5031824;28;20035;-78
2021/08/11 02:47:08;;;;;;;542.30;382.50;;;;;;;;;;5029655;28;20037;-78
2021/08/11 02:49:35;;;;;;;542.13;384.30;;;;;;;;;;5031683;28;20117;-78
2021/08/11 02:52:01;;;;;;;540.97;382.02;;;;;;;;;;5031268;28;20036;-77
2021/08/11 02:54:28;;;;;;;540.72;379.73;;;;;;;;;;5035112;28;20041;-78
2021/08/11 02:56:55;;;;;;;541.08;381.83;;;;;;;;;;5016696;28;20404;-78
2021/08/11 02:59:22;;;;;;;543.38;385.67;;;;;;;;;;5049048;28;20104;-77
2021/08/11 03:01:49;;;;;;;541.33;382.83;;;;;;;;;;5027417;28;20021;-77
2021/08/11 03:04:15;;;;;;;543.22;382.83;;;;;;;;;;5051809;28;20021;-77
2021/08/11 03:06:41;;;;;;;541.75;381.25;;;;;;;;;;5035111;28;20461;-78
2021/08/11 03:09:08;;;;;;;543.13;389.52;;;;;;;;;;5034988;28;20029;-77
2021/08/11 03:11:34;;;;;;;542.17;384.80;;;;;;;;;;5021477;28;20029;-77
2021/08/11 03:14:01;;;;;;;541.72;386.58;;;;;;;;;;5044981;28;20547;-78
2021/08/11 03:16:28;;;;;;;543.65;387.33;;;;;;;;;;5033455;28;20128;-77
2021/08/11 03:18:54;;;;;;;544.70;380.27;;;;;;;;;;5033880;28;20090;-78
2021/08/11 03:21:20;;;;;;;543.33;388.65;;;;;;;;;;5017482;28;20116;-79
2021/08/11 03:23:46;;;;;;;542.10;386.27;;;;;;;;;;5034500;28;20025;-77
2021/08/11 03:26:12;;;;;;;540.75;382.55;;;;;;;;;;5050860;28;20029;-77
2021/08/11 03:28:39;;;;;;;541.03;383.42;;;;;;;;;;5014804;28;20102;-77
2021/08/11 03:31:05;;;;;;;541.88;385.45;;;;;;;;;;5025891;28;20071;-77
2021/08/11 03:33:31;;;;;;;541.20;383.05;;;;;;;;;;5034648;28;20106;-77
2021/08/11 03:35:57;;;;;;;540.15;381.25;;;;;;;;;;5034427;28;20029;-77
2021/08/11 03:38:23;;;;;;;541.97;382.70;;;;;;;;;;5034141;28;20128;-78
2021/08/11 03:40:49;;;;;;;539.70;378.27;;;;;;;;;;5050212;28;20029;-78
2021/08/11 03:43:15;;;;;;;540.33;378.55;;;;;;;;;;5025593;28;20037;-78
2021/08/11 03:45:42;;;;;;;536.97;374.05;;;;;;;;;;5034924;28;20029;-77
2021/08/11 03:48:08;;;;;;;540.72;379.92;;;;;;;;;;5034084;28;20411;-77
2021/08/11 03:50:34;;;;;;;543.10;390.75;;;;;;;;;;5032688;28;20068;-77
2021/08/11 03:53:00;;;;;;;540.80;385.23;;;;;;;;;;5021659;28;20038;-77
2021/08/11 03:55:32;;;;;;;537.90;375.05;;;;;;;;;;5041796;28;20056;-78
2021/08/11 03:57:59;;;;;;;540.67;384.40;;;;;;;;;;5056299;28;20025;-78
2021/08/11 04:00:25;;;;;;;543.90;386.85;;;;;;;;;;5037230;28;20082;-77
2021/08/11 04:02:51;;;;;;;540.22;383.63;;;;;;;;;;5033037;28;20025;-76
2021/08/11 04:05:17;;;;;;;539.20;380.23;;;;;;;;;;5018544;28;20029;-75
2021/08/11 04:07:43;;;;;;;543.58;395.77;;;;;;;;;;5037515;28;20044;-77
2021/08/11 04:10:10;;;;;;;538.45;382.95;;;;;;;;;;5033585;28;20425;-77
2021/08/11 04:12:36;;;;;;;540.45;390.58;;;;;;;;;;5034856;28;20053;-77
2021/08/11 04:15:03;;;;;;;538.65;387.00;;;;;;;;;;5037806;28;20039;-77
2021/08/11 04:17:29;;;;;;;540.22;391.27;;;;;;;;;;5031447;28;20136;-77
2021/08/11 04:19:55;;;;;;;539.80;390.08;;;;;;;;;;5036826;28;20506;-78
2021/08/11 04:22:21;;;;;;;540.17;384.85;;;;;;;;;;5055085;28;20029;-77
2021/08/11 04:24:47;;;;;;;538.83;378.02;;;;;;;;;;5036874;28;20443;-77
2021/08/11 04:27:13;;;;;;;535.70;375.90;;;;;;;;;;5038057;28;20426;-78
2021/08/11 04:29:39;;;;;;;539.00;385.90;;;;;;;;;;5037207;28;20021;-77
2021/08/11 04:32:05;;;;;;;536.00;377.13;;;;;;;;;;5036190;28;20029;-77
2021/08/11 04:34:31;;;;;;;538.20;382.48;;;;;;;;;;5037053;28;20029;-77
2021/08/11 04:36:58;;;;;;;538.67;385.13;;;;;;;;;;5037854;28;20033;-77
2021/08/11 04:39:24;;;;;;;537.03;379.92;;;;;;;;;;5037000;28;20047;-77
2021/08/11 04:41:51;;;;;;;536.83;372.73;;;;;;;;;;5021357;28;20033;-77
2021/08/11 04:44:17;;;;;;;539.53;381.20;;;;;;;;;;5033896;28;20141;-77
2021/08/11 04:46:43;;;;;;;536.75;378.05;;;;;;;;;;5045440;28;20107;-77
2021/08/11 04:49:09;;;;;;;538.03;379.25;;;;;;;;;;5044323;28;20021;-77
2021/08/11 04:51:35;;;;;;;536.38;374.75;;;;;;;;;;5037551;28;20051;-77
2021/08/11 04:54:01;;;;;;;536.65;375.08;;;;;;;;;;5036776;28;20444;-77
2021/08/11 04:56:27;;;;;;;536.38;378.25;;;;;;;;;;5053002;28;20048;-77
2021/08/11 04:58:53;;;;;;;535.67;376.83;;;;;;;;;;5037087;28;20162;-77
2021/08/11 05:01:19;;;;;;;538.20;390.08;;;;;;;;;;5053847;28;20032;-78
2021/08/11 05:03:45;;;;;;;536.85;380.48;;;;;;;;;;5021881;28;20025;-77
2021/08/11 05:06:11;;;;;;;535.72;381.13;;;;;;;;;;5053535;28;20025;-77
2021/08/11 05:08:38;;;;;;;540.05;389.58;;;;;;;;;;5037011;28;20117;-77
2021/08/11 05:11:04;;;;;;;539.67;394.88;;;;;;;;;;5036366;28;20029;-77
2021/08/11 05:13:31;;;;;;;538.53;391.58;;;;;;;;;;5055063;28;20051;-77
2021/08/11 05:15:57;;;;;;;538.70;392.95;;;;;;;;;;5043997;28;20030;-77
2021/08/11 05:18:23;;;;;;;544.55;402.25;;;;;;;;;;5035741;28;20102;-78
2021/08/11 05:20:49;;;;;;;539.47;397.48;;;;;;;;;;5036125;28;20463;-78
2021/08/11 05:23:15;;;;;;;538.42;399.48;;;;;;;;;;5037051;28;20050;-77
2021/08/11 05:25:43;;;;;;;537.25;395.30;;;;;;;;;;5036025;28;20025;-77
2021/08/11 05:28:10;;;;;;;536.10;394.65;;;;;;;;;;5036869;28;20067;-78
2021/08/11 05:30:37;;;;;;;537.20;402.10;;;;;;;;;;5036196;28;20083;-76
2021/08/11 05:33:03;;;;;;;539.58;403.95;;;;;;;;;;5028254;28;20526;-77
2021/08/11 05:35:29;;;;;;;541.65;412.00;;;;;;;;;;5023276;28;20773;-78
2021/08/11 05:37:55;;;;;;;538.50;405.23;;;;;;;;;;5036027;28;20116;-77
2021/08/11 05:40:21;;;;;;;539.08;410.33;;;;;;;;;;5035179;28;20071;-78
2021/08/11 05:42:47;;;;;;;541.30;414.23;;;;;;;;;;5053192;28;20436;-77
2021/08/11 05:45:13;;;;;;;540.53;412.67;;;;;;;;;;5034646;28;20040;-78
2021/08/11 05:47:39;;;;;;;542.97;415.98;;;;;;;;;;5024493;28;20116;-78
2021/08/11 05:50:05;;;;;;;539.42;414.10;;;;;;;;;;5046214;28;20016;-77
2021/08/11 05:52:31;;;;;;;542.08;416.85;;;;;;;;;;5025190;28;20168;-77
2021/08/11 05:54:57;;;;;;;539.83;414.45;;;;;;;;;;5030981;28;20128;-78
2021/08/11 05:57:23;;;;;;;545.35;424.67;;;;;;;;;;5032022;28;20329;-77
2021/08/11 05:59:49;;;;;;;540.00;414.48;;;;;;;;;;5031113;28;20047;-77
2021/08/11 06:02:15;;;;;;;539.95;420.67;;;;;;;;;;5027930;28;20168;-77
2021/08/11 06:04:41;;;;;;;541.97;418.65;;;;;;;;;;5032448;28;20116;-77
2021/08/11 06:07:07;;;;;;;541.42;421.02;;;;;;;;;;5032964;28;20033;-78
2021/08/11 06:09:33;;;;;;;540.90;421.02;;;;;;;;;;5032285;28;20036;-78
2021/08/11 06:11:59;;;;;;;545.70;432.05;;;;;;;;;;5032084;28;20037;-78
2021/08/11 06:14:25;;;;;;;542.50;427.38;;;;;;;;;;5032710;28;20376;-78
2021/08/11 06:16:51;;;;;;;539.42;420.08;;;;;;;;;;5030570;28;20035;-77
2021/08/11 06:19:17;;;;;;;545.20;428.63;;;;;;;;;;5031065;28;20044;-77
2021/08/11 06:21:43;;;;;;;542.30;425.38;;;;;;;;;;5031834;28;20022;-77
2021/08/11 06:24:09;;;;;;;542.25;429.08;;;;;;;;;;5030837;28;20021;-78
2021/08/11 06:26:36;;;;;;;544.75;436.38;;;;;;;;;;5031547;28;20113;-78
2021/08/11 06:29:02;;;;;;;547.70;435.90;;;;;;;;;;5030839;28;20124;-77
2021/08/11 06:31:28;;;;;;;541.65;430.27;;;;;;;;;;5030974;28;20060;-77
2021/08/11 06:34:26;;;;;;;550.55;433.20;;;;;;;;;;5027634;28;20037;-84
2021/08/11 06:36:54;;;;;;;542.85;426.42;;;;;;;;;;5009317;28;20550;-80
2021/08/11 06:39:22;;;;;;;545.65;437.73;;;;;;;;;;5020827;28;20484;-79
2021/08/11 06:41:48;;;;;;;569.13;438.90;;;;;;;;;;5029482;28;20025;-77
2021/08/11 06:44:14;;;;;;;542.58;435.15;;;;;;;;;;5022977;28;20017;-77
2021/08/11 06:46:40;;;;;;;545.45;441.25;;;;;;;;;;5023221;28;20064;-78
2021/08/11 06:49:06;;;;;;;547.22;446.63;;;;;;;;;;5024503;28;20108;-77
2021/08/11 06:51:32;;;;;;;545.45;444.67;;;;;;;;;;5016873;28;20030;-77
2021/08/11 06:53:58;;;;;;;550.85;448.20;;;;;;;;;;5022362;28;20037;-77
2021/08/11 06:56:24;;;;;;;548.08;448.20;;;;;;;;;;5016531;28;20046;-77
2021/08/11 06:58:50;;;;;;;545.47;448.52;;;;;;;;;;5025292;28;20028;-77
2021/08/11 07:01:16;;;;;;;551.33;456.50;;;;;;;;;;5027198;28;20033;-77
2021/08/11 07:03:43;;;;;;;549.95;459.25;;;;;;;;;;5021731;28;20045;-77
2021/08/11 07:06:09;;;;;;;548.38;454.08;;;;;;;;;;5014137;28;20048;-80
2021/08/11 07:08:35;;;;;;;550.83;457.27;;;;;;;;;;5022679;28;20030;-78
2021/08/11 07:11:01;;;;;;;546.65;451.40;;;;;;;;;;5016117;28;20112;-77
2021/08/11 07:13:27;;;;;;;546.55;446.88;;;;;;;;;;5014548;28;20535;-77
2021/08/11 07:15:53;;;;;;;546.88;455.73;;;;;;;;;;5026884;28;20030;-78
2021/08/11 07:18:20;;;;;;;549.88;455.63;;;;;;;;;;5021535;28;20112;-78
2021/08/11 07:20:46;;;;;;;550.50;461.75;;;;;;;;;;5016970;28;20052;-80
2021/08/11 07:23:12;;;;;;;550.45;463.40;;;;;;;;;;5021777;28;20049;-81
2021/08/11 07:25:39;;;;;;;547.85;463.73;;;;;;;;;;5015990;28;20022;-81
2021/08/11 07:28:11;;;;;;;546.95;460.00;;;;;;;;;;5016319;28;20057;-83
2021/08/11 07:30:37;;;;;;;547.95;465.17;;;;;;;;;;5021588;28;20052;-79
2021/08/11 07:33:06;;;;;;;552.78;476.48;;;;;;;;;;5021681;28;20041;-79
2021/08/11 07:35:32;;;;;;;550.97;468.35;;;;;;;;;;5022653;28;20104;-83
2021/08/11 07:37:58;;;;;;;560.30;483.92;;;;;;;;;;5013518;28;20035;-77
2021/08/11 07:40:26;;;;;;;560.83;489.45;;;;;;;;;;5014072;28;20026;-77
2021/08/11 07:42:52;;;;;;;559.50;491.52;;;;;;;;;;5010834;28;20132;-78
2021/08/11 07:45:19;;;;;;;560.72;492.00;;;;;;;;;;5011771;28;20038;-78
2021/08/11 07:47:51;;;;;;;558.90;491.75;;;;;;;;;;5014991;28;20450;-75
2021/08/11 07:50:17;;;;;;;570.97;495.10;;;;;;;;;;5018621;28;20025;-80
2021/08/11 07:52:43;;;;;;;563.03;498.58;;;;;;;;;;5005537;28;20745;-80
2021/08/11 07:55:10;;;;;;;559.53;497.48;;;;;;;;;;5017768;28;20435;-78
2021/08/11 07:57:36;;;;;;;567.10;503.63;;;;;;;;;;5012906;28;20124;-76
2021/08/11 08:00:02;;;;;;;576.47;513.70;;;;;;;;;;5010016;28;20025;-75
2021/08/11 08:02:28;;;;;;;572.50;510.25;;;;;;;;;;5016678;28;20026;-75
2021/08/11 08:04:54;;;;;;;579.22;516.90;;;;;;;;;;5015614;28;20026;-76
2021/08/11 08:07:24;;;;;;;583.70;521.15;;;;;;;;;;5021242;28;20033;-81
2021/08/11 08:09:51;;;;;;;591.92;529.38;;;;;;;;;;5016590;28;20183;-77
2021/08/11 08:12:17;;;;;;;601.38;538.65;;;;;;;;;;5017121;28;20034;-79
2021/08/11 08:14:43;;;;;;;603.55;540.80;;;;;;;;;;5017422;28;20026;-74
2021/08/11 08:17:09;;;;;;;606.25;543.53;;;;;;;;;;5018755;28;20045;-75
2021/08/11 08:19:34;;;;;;;616.83;553.90;;;;;;;;;;5012076;28;20504;-76
2021/08/11 08:22:00;;;;;;;619.92;556.03;;;;;;;;;;5020095;28;20099;-77
2021/08/11 08:24:31;;;;;;;610.53;547.97;;;;;;;;;;5019041;28;20032;-76
2021/08/11 08:26:57;;;;;;;606.42;543.88;;;;;;;;;;5027791;28;20396;-75
2021/08/11 08:29:23;;;;;;;604.83;542.20;;;;;;;;;;5015064;28;20095;-75
2021/08/11 08:31:49;;;;;;;599.90;537.83;;;;;;;;;;5010707;28;20116;-76
2021/08/11 08:34:15;;;;;;;604.40;542.03;;;;;;;;;;5012332;28;21007;-79
2021/08/11 08:36:41;;;;;;;617.50;554.83;;;;;;;;;;5012231;28;20613;-76
2021/08/11 08:39:07;;;;;;;602.85;540.65;;;;;;;;;;5011858;28;20034;-84
2021/08/11 08:41:34;;;;;;;605.50;543.42;;;;;;;;;;5021245;28;20033;-79
2021/08/11 08:44:00;;;;;;;597.50;535.47;;;;;;;;;;5016765;28;20036;-78
2021/08/11 08:46:27;;;;;;;601.00;538.83;;;;;;;;;;5009249;28;20096;-74
2021/08/11 08:48:53;;;;;;;592.97;531.85;;;;;;;;;;5016350;28;20121;-74
2021/08/11 08:51:22;;;;;;;593.90;532.55;;;;;;;;;;5032361;28;20108;-75
2021/08/11 08:53:51;;;;;;;586.97;525.97;;;;;;;;;;5024577;28;20026;-84
2021/08/11 08:56:17;;;;;;;588.85;527.65;;;;;;;;;;5026907;28;20058;-81
2021/08/11 08:58:48;;;;;;;587.10;526.25;;;;;;;;;;5028186;28;20033;-83
2021/08/11 09:01:14;;;;;;;591.55;530.40;;;;;;;;;;5016373;28;20026;-84
2021/08/11 09:03:40;;;;;;;597.47;536.13;;;;;;;;;;5041108;28;20495;-84
2021/08/11 09:06:06;;;;;;;592.05;530.75;;;;;;;;;;5025508;28;20076;-85
2021/08/11 09:08:32;;;;;;;598.70;537.40;;;;;;;;;;5028134;28;20029;-82
2021/08/11 09:10:59;;;;;;;603.80;542.40;;;;;;;;;;5026317;28;20441;-82
2021/08/11 09:13:28;;;;;;;609.70;548.15;;;;;;;;;;5023773;28;20022;-82
2021/08/11 09:15:55;;;;;;;613.65;552.15;;;;;;;;;;5014368;28;20040;-83
2021/08/11 09:18:22;;;;;;;608.50;547.35;;;;;;;;;;5027872;28;20029;-82
2021/08/11 09:20:50;;;;;;;621.75;560.20;;;;;;;;;;5017221;28;20530;-80
2021/08/11 09:23:34;;;;;;;626.40;565.05;;;;;;;;;;5022827;28;20030;-82
2021/08/11 09:26:01;;;;;;;639.70;577.78;;;;;;;;;;5023759;28;20108;-83
2021/08/11 09:28:29;;;;;;;649.30;587.45;;;;;;;;;;5027071;28;20083;-82
2021/08/11 09:30:56;;;;;;;652.42;590.58;;;;;;;;;;5035182;28;20033;-82
2021/08/11 09:33:26;;;;;;;667.80;605.55;;;;;;;;;;5030012;28;20037;-83
2021/08/11 09:35:53;;;;;;;683.92;621.33;;;;;;;;;;5031040;28;20436;-77
2021/08/11 09:38:19;;;;;;;692.28;629.45;;;;;;;;;;5033144;28;20022;-77
2021/08/11 09:40:45;;;;;;;711.90;648.25;;;;;;;;;;5031615;28;20117;-77
2021/08/11 09:43:13;;;;;;;728.17;664.30;;;;;;;;;;5016001;28;20026;-76
2021/08/11 09:45:43;;;;;;;720.42;657.30;;;;;;;;;;5032074;28;20049;-78
2021/08/11 09:48:09;;;;;;;739.30;675.67;;;;;;;;;;5033932;28;20036;-77
2021/08/11 09:50:46;;;;;;;751.45;687.45;;;;;;;;;;5028310;28;20367;-78
2021/08/11 09:53:13;;;;;;;752.50;688.65;;;;;;;;;;5018909;28;20052;-78
2021/08/11 09:56:02;;;;;;;758.22;694.33;;;;;;;;;;5017230;28;20421;-77
2021/08/11 09:58:32;;;;;;;771.90;707.60;;;;;;;;;;5024092;28;20036;-76
2021/08/11 10:01:00;;;;;;;774.03;709.85;;;;;;;;;;5022363;28;20029;-77
2021/08/11 10:03:26;;;;;;;787.55;723.03;;;;;;;;;;5028816;28;20026;-77
2021/08/11 10:05:53;;;;;;;791.58;727.17;;;;;;;;;;5027984;28;20113;-77
2021/08/11 10:08:32;;;;;;;799.45;734.97;;;;;;;;;;5030414;28;20045;-77
2021/08/11 10:10:58;;;;;;;793.70;729.50;;;;;;;;;;5024276;28;20022;-77
2021/08/11 10:13:24;;;;;;;818.40;753.33;;;;;;;;;;5020304;28;20099;-77
2021/08/11 10:15:51;;;;;;;829.70;764.55;;;;;;;;;;5031994;28;20056;-77
2021/08/11 10:18:18;;;;;;;829.45;764.08;;;;;;;;;;5021916;28;20030;-78
2021/08/11 10:20:46;;;;;;;847.20;781.65;;;;;;;;;;5029226;28;20021;-77
2021/08/11 10:23:13;;;;;;;852.88;787.22;;;;;;;;;;5016711;28;20037;-77
2021/08/11 10:25:39;;;;;;;847.15;781.85;;;;;;;;;;5023872;28;20068;-77
2021/08/11 10:28:05;;;;;;;836.10;771.20;;;;;;;;;;5019475;28;20061;-75
2021/08/11 10:30:33;;;;;;;833.78;768.90;;;;;;;;;;5021563;28;20029;-77
2021/08/11 10:32:59;;;;;;;830.00;765.45;;;;;;;;;;5028357;28;20410;-74
2021/08/11 10:35:25;;;;;;;821.55;757.15;;;;;;;;;;5026709;28;20026;-77
2021/08/11 10:37:52;;;;;;;816.97;752.70;;;;;;;;;;5027726;28;20363;-81
2021/08/11 10:40:18;;;;;;;801.03;737.08;;;;;;;;;;5017911;28;20073;-77
2021/08/11 10:42:55;;;;;;;790.00;726.08;;;;;;;;;;5027284;28;20060;-76
2021/08/11 10:45:22;;;;;;;778.67;714.88;;;;;;;;;;5030571;28;20052;-79
2021/08/11 10:47:48;;;;;;;775.35;711.50;;;;;;;;;;5022901;28;20034;-76
2021/08/11 10:50:14;;;;;;;747.55;684.63;;;;;;;;;;5024454;28;20466;-77
2021/08/11 10:52:40;;;;;;;750.60;687.28;;;;;;;;;;5024396;28;20034;-76
2021/08/11 10:55:07;;;;;;;736.47;673.35;;;;;;;;;;5027008;28;20055;-74
2021/08/11 10:57:33;;;;;;;737.40;674.08;;;;;;;;;;5049924;28;20021;-73
2021/08/11 10:59:59;;;;;;;733.33;670.13;;;;;;;;;;5042633;28;20109;-74
2021/08/11 11:02:37;;;;;;;723.08;660.03;;;;;;;;;;5048036;28;20044;-74
2021/08/11 11:05:04;;;;;;;725.50;662.70;;;;;;;;;;5050724;28;20053;-74
2021/08/11 11:07:29;;;;;;;730.08;667.10;;;;;;;;;;5046506;28;20029;-74
2021/08/11 11:10:14;;;;;;;737.15;673.97;;;;;;;;;;5043304;28;20117;-73
2021/08/11 11:12:40;;;;;;;751.33;687.95;;;;;;;;;;5041788;28;20470;-73
2021/08/11 11:15:06;;;;;;;753.80;690.53;;;;;;;;;;5036278;28;20025;-73
2021/08/11 11:17:35;;;;;;;761.70;698.42;;;;;;;;;;5044685;28;20395;-73
2021/08/11 11:20:13;;;;;;;759.53;696.25;;;;;;;;;;5026198;28;20407;-73
2021/08/11 11:22:47;;;;;;;775.67;712.08;;;;;;;;;;5035999;28;20108;-74
2021/08/11 11:25:14;;;;;;;778.85;715.42;;;;;;;;;;5031479;28;20044;-73
2021/08/11 11:27:40;;;;;;;793.33;729.30;;;;;;;;;;5046955;28;20021;-73
2021/08/11 11:30:08;;;;;;;802.03;738.13;;;;;;;;;;5041748;28;20044;-75
2021/08/11 11:32:38;;;;;;;817.15;752.67;;;;;;;;;;5048720;28;20086;-75
2021/08/11 11:35:17;;;;;;;811.25;747.00;;;;;;;;;;5021681;28;20057;-79
2021/08/11 11:37:43;;;;;;;822.60;758.10;;;;;;;;;;5032356;28;20033;-80
2021/08/11 11:40:15;;;;;;;819.67;755.47;;;;;;;;;;5021709;28;20096;-78
2021/08/11 11:42:42;;;;;;;810.60;746.58;;;;;;;;;;5031223;28;20036;-77
2021/08/11 11:45:13;;;;;;;815.22;751.00;;;;;;;;;;5023840;28;20033;-76
2021/08/11 11:47:40;;;;;;;805.40;741.20;;;;;;;;;;5020094;28;20024;-76
2021/08/11 11:50:25;;;;;;;807.67;743.15;;;;;;;;;;5021855;28;20051;-79
2021/08/11 11:52:58;;;;;;;806.95;742.80;;;;;;;;;;5030623;28;20111;-79
2021/08/11 11:55:31;;;;;;;803.97;739.88;;;;;;;;;;5015626;28;20372;-79
2021/08/11 11:58:00;;;;;;;809.75;745.65;;;;;;;;;;5028486;28;20021;-81
2021/08/11 12:00:27;;;;;;;810.30;746.35;;;;;;;;;;5032769;28;20021;-80
2021/08/11 12:02:54;;;;;;;811.38;747.42;;;;;;;;;;5031948;28;20043;-78
2021/08/11 12:05:20;;;;;;;816.95;752.83;;;;;;;;;;5018022;28;20025;-80
2021/08/11 12:07:46;;;;;;;826.15;761.97;;;;;;;;;;5051671;28;20033;-80
2021/08/11 12:10:23;;;;;;;831.08;766.75;;;;;;;;;;5033941;28;20029;-80
2021/08/11 12:12:59;;;;;;;831.30;767.30;;;;;;;;;;5020403;28;20064;-79
2021/08/11 12:15:25;;;;;;;811.75;748.13;;;;;;;;;;5035953;28;20080;-80
2021/08/11 12:17:51;;;;;;;792.97;729.83;;;;;;;;;;5037140;28;20082;-78
2021/08/11 12:20:36;;;;;;;793.30;729.97;;;;;;;;;;5038214;28;20406;-79
2021/08/11 12:23:15;;;;;;;804.47;740.65;;;;;;;;;;5037127;28;20497;-79
2021/08/11 12:25:41;;;;;;;820.47;756.22;;;;;;;;;;5038232;28;20025;-79
2021/08/11 12:28:08;;;;;;;832.95;768.58;;;;;;;;;;5036457;28;20040;-79
2021/08/11 12:30:36;;;;;;;833.03;768.83;;;;;;;;;;5037849;28;20047;-79
2021/08/11 12:33:03;;;;;;;847.47;782.80;;;;;;;;;;5036508;28;20076;-74
2021/08/11 12:35:29;;;;;;;852.95;788.35;;;;;;;;;;5054227;28;20029;-74
2021/08/11 12:37:55;;;;;;;846.92;782.65;;;;;;;;;;5047967;28;20040;-75
2021/08/11 12:40:32;;;;;;;846.83;782.58;;;;;;;;;;5053961;28;20029;-76
2021/08/11 12:42:59;;;;;;;847.30;783.13;;;;;;;;;;5047033;28;20669;-75
2021/08/11 12:45:26;;;;;;;862.13;797.38;;;;;;;;;;5023915;28;20021;-75
2021/08/11 12:47:52;;;;;;;871.47;805.72;;;;;;;;;;5036381;28;20017;-77
2021/08/11 12:50:19;;;;;;;860.60;796.15;;;;;;;;;;5045702;28;20049;-75
2021/08/11 12:52:54;;;;;;;851.92;787.65;;;;;;;;;;5043555;28;20055;-75
2021/08/11 12:55:37;;;;;;;854.08;789.83;;;;;;;;;;5050566;28;20049;-75
2021/08/11 12:58:03;;;;;;;859.22;794.17;;;;;;;;;;5049333;28;20029;-75
2021/08/11 13:00:43;;;;;;;846.67;782.50;;;;;;;;;;5031479;28;20148;-75
2021/08/11 13:03:12;;;;;;;840.63;776.67;;;;;;;;;;5052461;28;20021;-75
2021/08/11 13:05:51;;;;;;;829.97;766.45;;;;;;;;;;5055137;28;20017;-75
2021/08/11 13:08:17;;;;;;;;;;;;;;;;;;5035264;28;20076;-75
2021/08/11 13:10:54;;;;;;;820.53;756.45;;;;;;;;;;5035006;28;19955;-75
2021/08/11 13:13:22;;;;;;;831.67;767.53;;;;;;;;;;5039737;28;20048;-75
2021/08/11 13:15:48;;;;;;;835.80;771.72;;;;;;;;;;5046614;28;20024;-75
2021/08/11 13:18:23;;;;;;;835.45;771.50;;;;;;;;;;5034425;28;20087;-78
2021/08/11 13:20:49;;;;;;;847.35;782.67;;;;;;;;;;5052161;28;20028;-78
2021/08/11 13:23:15;;;;;;;847.95;783.53;;;;;;;;;;5032505;28;20063;-76
2021/08/11 13:25:44;;;;;;;836.20;772.63;;;;;;;;;;5025727;28;20022;-76
2021/08/11 13:28:11;;;;;;;844.63;780.70;;;;;;;;;;5022973;28;20171;-76
2021/08/11 13:30:37;;;;;;;844.33;780.35;;;;;;;;;;5026740;28;20029;-76
2021/08/11 13:33:04;;;;;;;829.08;765.58;;;;;;;;;;5035780;28;20052;-76
2021/08/11 13:35:32;;;;;;;845.47;781.05;;;;;;;;;;5026419;28;20036;-76
2021/08/11 13:38:07;;;;;;;839.78;775.65;;;;;;;;;;5038439;28;20466;-80
2021/08/11 13:40:36;;;;;;;845.03;780.65;;;;;;;;;;5049222;28;20025;-76
2021/08/11 13:43:02;;;;;;;833.58;769.38;;;;;;;;;;5036260;28;20036;-76
2021/08/11 13:45:28;;;;;;;832.85;769.05;;;;;;;;;;5035853;28;20029;-76
2021/08/11 13:47:54;;;;;;;831.53;767.75;;;;;;;;;;5018784;28;20043;-75
2021/08/11 13:50:20;;;;;;;832.83;768.90;;;;;;;;;;5041800;28;20462;-73
2021/08/11 13:52:46;;;;;;;832.95;768.83;;;;;;;;;;5035547;28;20044;-73
2021/08/11 13:55:13;;;;;;;823.63;759.92;;;;;;;;;;5034645;28;20056;-73
2021/08/11 13:57:40;;;;;;;824.72;760.75;;;;;;;;;;5051872;28;20475;-74